sensor_id;sensor_type;location;lat;lon;timestamp;P1;durP1;ratioP1;P2;durP2;ratioP2
20090;SDS011;10205;49.678;6.560;2023-11-19T00:00:52;1.20;;;1.10;;
20090;SDS011;10205;49.678;6.560;2023-11-19T00:03:20;0.98;;;0.88;;
20090;SDS011;10205;49.678;6.560;2023-11-19T00:05:47;0.73;;;0.73;;
20090;SDS011;10205;49.678;6.560;2023-11-19T00:08:15;0.60;;;0.60;;
20090;SDS011;10205;49.678;6.560;2023-11-19T00:10:42;1.67;;;0.80;;
20090;SDS011;10205;49.678;6.560;2023-11-19T00:13:11;3.25;;;0.80;;
20090;SDS011;10205;49.678;6.560;2023-11-19T00:15:38;0.90;;;0.90;;
20090;SDS011;10205;49.678;6.560;2023-11-19T00:18:05;0.80;;;0.80;;
20090;SDS011;10205;49.678;6.560;2023-11-19T00:20:33;0.85;;;0.80;;
20090;SDS011;10205;49.678;6.560;2023-11-19T00:23:01;1.00;;;0.90;;
20090;SDS011;10205;49.678;6.560;2023-11-19T00:25:28;0.90;;;0.80;;
20090;SDS011;10205;49.678;6.560;2023-11-19T00:27:55;0.90;;;0.90;;
20090;SDS011;10205;49.678;6.560;2023-11-19T00:30:22;0.70;;;0.70;;
20090;SDS011;10205;49.678;6.560;2023-11-19T00:32:49;1.13;;;0.70;;
20090;SDS011;10205;49.678;6.560;2023-11-19T00:35:16;0.70;;;0.70;;
20090;SDS011;10205;49.678;6.560;2023-11-19T00:37:45;2.30;;;0.60;;
20090;SDS011;10205;49.678;6.560;2023-11-19T00:40:12;0.75;;;0.75;;
20090;SDS011;10205;49.678;6.560;2023-11-19T00:42:41;0.80;;;0.80;;
20090;SDS011;10205;49.678;6.560;2023-11-19T00:45:08;1.33;;;0.70;;
20090;SDS011;10205;49.678;6.560;2023-11-19T00:47:37;0.77;;;0.70;;
20090;SDS011;10205;49.678;6.560;2023-11-19T00:50:04;0.98;;;0.70;;
20090;SDS011;10205;49.678;6.560;2023-11-19T00:52:34;0.77;;;0.73;;
20090;SDS011;10205;49.678;6.560;2023-11-19T00:55:04;0.82;;;0.80;;
20090;SDS011;10205;49.678;6.560;2023-11-19T00:57:32;1.08;;;0.70;;
20090;SDS011;10205;49.678;6.560;2023-11-19T00:59:59;0.88;;;0.77;;
20090;SDS011;10205;49.678;6.560;2023-11-19T01:02:26;0.70;;;0.70;;
20090;SDS011;10205;49.678;6.560;2023-11-19T01:04:53;0.60;;;0.60;;
20090;SDS011;10205;49.678;6.560;2023-11-19T01:07:20;1.10;;;1.05;;
20090;SDS011;10205;49.678;6.560;2023-11-19T01:09:49;0.80;;;0.80;;
20090;SDS011;10205;49.678;6.560;2023-11-19T01:12:18;0.65;;;0.65;;
20090;SDS011;10205;49.678;6.560;2023-11-19T01:14:45;0.70;;;0.70;;
20090;SDS011;10205;49.678;6.560;2023-11-19T01:20:22;0.65;;;0.65;;
20090;SDS011;10205;49.678;6.560;2023-11-19T01:22:49;2.38;;;0.70;;
20090;SDS011;10205;49.678;6.560;2023-11-19T01:25:17;0.70;;;0.70;;
20090;SDS011;10205;49.678;6.560;2023-11-19T01:27:45;0.60;;;0.60;;
20090;SDS011;10205;49.678;6.560;2023-11-19T01:30:13;0.60;;;0.60;;
20090;SDS011;10205;49.678;6.560;2023-11-19T01:32:40;0.75;;;0.70;;
20090;SDS011;10205;49.678;6.560;2023-11-19T01:35:07;0.70;;;0.70;;
20090;SDS011;10205;49.678;6.560;2023-11-19T01:37:35;0.65;;;0.65;;
20090;SDS011;10205;49.678;6.560;2023-11-19T01:40:02;0.63;;;0.63;;
20090;SDS011;10205;49.678;6.560;2023-11-19T01:42:35;0.70;;;0.68;;
20090;SDS011;10205;49.678;6.560;2023-11-19T01:45:05;0.60;;;0.60;;
20090;SDS011;10205;49.678;6.560;2023-11-19T01:47:34;1.88;;;0.70;;
20090;SDS011;10205;49.678;6.560;2023-11-19T01:53:53;1.10;;;0.70;;
20090;SDS011;10205;49.678;6.560;2023-11-19T01:56:22;0.70;;;0.70;;
20090;SDS011;10205;49.678;6.560;2023-11-19T01:58:52;0.60;;;0.60;;
20090;SDS011;10205;49.678;6.560;2023-11-19T02:01:23;0.68;;;0.68;;
20090;SDS011;10205;49.678;6.560;2023-11-19T02:03:50;0.52;;;0.52;;
20090;SDS011;10205;49.678;6.560;2023-11-19T02:06:18;0.80;;;0.60;;
20090;SDS011;10205;49.678;6.560;2023-11-19T02:08:45;0.60;;;0.50;;
20090;SDS011;10205;49.678;6.560;2023-11-19T02:11:12;0.60;;;0.60;;
20090;SDS011;10205;49.678;6.560;2023-11-19T02:13:39;0.60;;;0.60;;
20090;SDS011;10205;49.678;6.560;2023-11-19T02:16:08;0.57;;;0.57;;
20090;SDS011;10205;49.678;6.560;2023-11-19T02:18:38;0.60;;;0.60;;
20090;SDS011;10205;49.678;6.560;2023-11-19T02:21:05;1.00;;;0.77;;
20090;SDS011;10205;49.678;6.560;2023-11-19T02:23:32;0.60;;;0.60;;
20090;SDS011;10205;49.678;6.560;2023-11-19T02:26:02;0.68;;;0.68;;
20090;SDS011;10205;49.678;6.560;2023-11-19T02:28:40;0.70;;;0.70;;
20090;SDS011;10205;49.678;6.560;2023-11-19T02:31:09;2.10;;;0.68;;
20090;SDS011;10205;49.678;6.560;2023-11-19T02:33:39;0.60;;;0.60;;
20090;SDS011;10205;49.678;6.560;2023-11-19T02:36:07;0.60;;;0.60;;
20090;SDS011;10205;49.678;6.560;2023-11-19T02:38:35;0.63;;;0.63;;
20090;SDS011;10205;49.678;6.560;2023-11-19T02:41:03;0.70;;;0.70;;
20090;SDS011;10205;49.678;6.560;2023-11-19T02:43:32;0.70;;;0.70;;
20090;SDS011;10205;49.678;6.560;2023-11-19T02:46:01;0.70;;;0.70;;
20090;SDS011;10205;49.678;6.560;2023-11-19T02:48:31;0.60;;;0.60;;
20090;SDS011;10205;49.678;6.560;2023-11-19T02:51:00;0.80;;;0.80;;
20090;SDS011;10205;49.678;6.560;2023-11-19T02:53:28;0.80;;;0.80;;
20090;SDS011;10205;49.678;6.560;2023-11-19T02:55:55;0.75;;;0.75;;
20090;SDS011;10205;49.678;6.560;2023-11-19T02:58:27;0.90;;;0.90;;
20090;SDS011;10205;49.678;6.560;2023-11-19T03:00:57;1.50;;;1.00;;
20090;SDS011;10205;49.678;6.560;2023-11-19T03:03:28;1.88;;;1.00;;
20090;SDS011;10205;49.678;6.560;2023-11-19T03:06:03;1.27;;;1.05;;
20090;SDS011;10205;49.678;6.560;2023-11-19T03:08:31;0.82;;;0.82;;
20090;SDS011;10205;49.678;6.560;2023-11-19T03:10:58;0.90;;;0.90;;
20090;SDS011;10205;49.678;6.560;2023-11-19T03:16:18;1.35;;;1.02;;
20090;SDS011;10205;49.678;6.560;2023-11-19T03:18:46;1.30;;;1.20;;
20090;SDS011;10205;49.678;6.560;2023-11-19T03:21:13;1.08;;;0.90;;
20090;SDS011;10205;49.678;6.560;2023-11-19T03:23:40;1.20;;;1.00;;
20090;SDS011;10205;49.678;6.560;2023-11-19T03:26:09;1.30;;;1.15;;
20090;SDS011;10205;49.678;6.560;2023-11-19T03:28:37;0.90;;;0.90;;
20090;SDS011;10205;49.678;6.560;2023-11-19T03:31:04;1.95;;;1.15;;
20090;SDS011;10205;49.678;6.560;2023-11-19T03:33:33;1.00;;;0.90;;
20090;SDS011;10205;49.678;6.560;2023-11-19T03:36:01;1.17;;;1.00;;
20090;SDS011;10205;49.678;6.560;2023-11-19T03:38:30;0.90;;;0.90;;
20090;SDS011;10205;49.678;6.560;2023-11-19T03:40:57;0.90;;;0.90;;
20090;SDS011;10205;49.678;6.560;2023-11-19T03:43:24;0.93;;;0.93;;
20090;SDS011;10205;49.678;6.560;2023-11-19T03:45:52;1.10;;;1.00;;
20090;SDS011;10205;49.678;6.560;2023-11-19T03:48:19;1.27;;;1.00;;
20090;SDS011;10205;49.678;6.560;2023-11-19T03:50:46;1.52;;;1.17;;
20090;SDS011;10205;49.678;6.560;2023-11-19T03:53:15;1.20;;;1.10;;
20090;SDS011;10205;49.678;6.560;2023-11-19T03:55:43;1.20;;;0.90;;
20090;SDS011;10205;49.678;6.560;2023-11-19T03:58:11;1.10;;;1.00;;
20090;SDS011;10205;49.678;6.560;2023-11-19T04:00:38;4.03;;;1.50;;
20090;SDS011;10205;49.678;6.560;2023-11-19T04:03:05;1.27;;;1.10;;
20090;SDS011;10205;49.678;6.560;2023-11-19T04:05:33;1.38;;;0.95;;
20090;SDS011;10205;49.678;6.560;2023-11-19T04:11:41;1.30;;;1.20;;
20090;SDS011;10205;49.678;6.560;2023-11-19T04:14:09;1.55;;;1.10;;
20090;SDS011;10205;49.678;6.560;2023-11-19T04:16:36;1.13;;;0.90;;
20090;SDS011;10205;49.678;6.560;2023-11-19T04:19:03;1.30;;;1.00;;
20090;SDS011;10205;49.678;6.560;2023-11-19T04:21:30;1.20;;;1.10;;
20090;SDS011;10205;49.678;6.560;2023-11-19T04:23:57;2.05;;;0.93;;
20090;SDS011;10205;49.678;6.560;2023-11-19T04:26:24;1.20;;;1.10;;
20090;SDS011;10205;49.678;6.560;2023-11-19T04:28:52;1.52;;;0.90;;
20090;SDS011;10205;49.678;6.560;2023-11-19T04:31:19;0.82;;;0.82;;
20090;SDS011;10205;49.678;6.560;2023-11-19T04:33:46;0.90;;;0.90;;
20090;SDS011;10205;49.678;6.560;2023-11-19T04:36:13;1.20;;;1.00;;
20090;SDS011;10205;49.678;6.560;2023-11-19T04:38:45;1.27;;;0.93;;
20090;SDS011;10205;49.678;6.560;2023-11-19T04:41:12;2.35;;;0.98;;
20090;SDS011;10205;49.678;6.560;2023-11-19T04:43:39;0.82;;;0.82;;
20090;SDS011;10205;49.678;6.560;2023-11-19T04:46:08;1.10;;;1.00;;
20090;SDS011;10205;49.678;6.560;2023-11-19T04:48:39;2.05;;;1.33;;
20090;SDS011;10205;49.678;6.560;2023-11-19T04:51:07;0.90;;;0.90;;
20090;SDS011;10205;49.678;6.560;2023-11-19T04:53:34;1.13;;;1.02;;
20090;SDS011;10205;49.678;6.560;2023-11-19T04:56:06;1.20;;;1.08;;
20090;SDS011;10205;49.678;6.560;2023-11-19T04:58:35;0.90;;;0.90;;
20090;SDS011;10205;49.678;6.560;2023-11-19T05:01:02;2.10;;;1.00;;
20090;SDS011;10205;49.678;6.560;2023-11-19T05:03:31;2.33;;;1.02;;
20090;SDS011;10205;49.678;6.560;2023-11-19T05:05:58;1.10;;;1.00;;
20090;SDS011;10205;49.678;6.560;2023-11-19T05:08:25;1.50;;;1.00;;
20090;SDS011;10205;49.678;6.560;2023-11-19T05:10:53;2.38;;;1.40;;
20090;SDS011;10205;49.678;6.560;2023-11-19T05:13:20;1.30;;;1.20;;
20090;SDS011;10205;49.678;6.560;2023-11-19T05:15:47;2.28;;;0.93;;
20090;SDS011;10205;49.678;6.560;2023-11-19T05:18:14;3.45;;;1.30;;
20090;SDS011;10205;49.678;6.560;2023-11-19T05:20:42;1.45;;;1.17;;
20090;SDS011;10205;49.678;6.560;2023-11-19T05:23:09;2.30;;;1.15;;
20090;SDS011;10205;49.678;6.560;2023-11-19T05:25:37;2.05;;;1.33;;
20090;SDS011;10205;49.678;6.560;2023-11-19T05:28:04;2.47;;;1.05;;
20090;SDS011;10205;49.678;6.560;2023-11-19T05:30:31;1.92;;;1.20;;
20090;SDS011;10205;49.678;6.560;2023-11-19T05:32:58;2.50;;;1.23;;
20090;SDS011;10205;49.678;6.560;2023-11-19T05:35:25;3.30;;;1.20;;
20090;SDS011;10205;49.678;6.560;2023-11-19T05:37:54;1.50;;;1.13;;
20090;SDS011;10205;49.678;6.560;2023-11-19T05:40:21;2.95;;;1.38;;
20090;SDS011;10205;49.678;6.560;2023-11-19T05:42:48;2.25;;;1.00;;
20090;SDS011;10205;49.678;6.560;2023-11-19T05:45:15;2.58;;;1.20;;
20090;SDS011;10205;49.678;6.560;2023-11-19T05:47:42;2.22;;;1.10;;
20090;SDS011;10205;49.678;6.560;2023-11-19T05:50:09;3.75;;;1.27;;
20090;SDS011;10205;49.678;6.560;2023-11-19T05:52:37;1.25;;;1.15;;
20090;SDS011;10205;49.678;6.560;2023-11-19T05:55:06;1.63;;;0.98;;
20090;SDS011;10205;49.678;6.560;2023-11-19T05:57:35;3.72;;;1.30;;
20090;SDS011;10205;49.678;6.560;2023-11-19T06:00:03;1.65;;;1.25;;
20090;SDS011;10205;49.678;6.560;2023-11-19T06:02:33;2.30;;;1.00;;
20090;SDS011;10205;49.678;6.560;2023-11-19T06:05:02;1.52;;;1.10;;
20090;SDS011;10205;49.678;6.560;2023-11-19T06:07:31;1.30;;;1.20;;
20090;SDS011;10205;49.678;6.560;2023-11-19T06:09:58;1.30;;;0.90;;
20090;SDS011;10205;49.678;6.560;2023-11-19T06:12:26;1.48;;;0.90;;
20090;SDS011;10205;49.678;6.560;2023-11-19T06:14:53;3.80;;;1.30;;
20090;SDS011;10205;49.678;6.560;2023-11-19T06:17:21;1.45;;;1.00;;
20090;SDS011;10205;49.678;6.560;2023-11-19T06:19:48;2.08;;;1.10;;
20090;SDS011;10205;49.678;6.560;2023-11-19T06:22:16;3.13;;;1.13;;
20090;SDS011;10205;49.678;6.560;2023-11-19T06:24:43;3.53;;;1.15;;
20090;SDS011;10205;49.678;6.560;2023-11-19T06:27:10;1.60;;;1.10;;
20090;SDS011;10205;49.678;6.560;2023-11-19T06:29:41;1.73;;;1.20;;
20090;SDS011;10205;49.678;6.560;2023-11-19T06:32:08;5.15;;;1.73;;
20090;SDS011;10205;49.678;6.560;2023-11-19T06:34:35;3.47;;;1.08;;
20090;SDS011;10205;49.678;6.560;2023-11-19T06:37:04;1.52;;;1.10;;
20090;SDS011;10205;49.678;6.560;2023-11-19T06:39:31;2.17;;;1.15;;
20090;SDS011;10205;49.678;6.560;2023-11-19T06:42:00;3.63;;;1.25;;
20090;SDS011;10205;49.678;6.560;2023-11-19T06:44:29;4.78;;;1.13;;
20090;SDS011;10205;49.678;6.560;2023-11-19T06:46:57;3.42;;;1.40;;
20090;SDS011;10205;49.678;6.560;2023-11-19T06:49:24;1.33;;;1.00;;
20090;SDS011;10205;49.678;6.560;2023-11-19T06:51:52;4.07;;;1.38;;
20090;SDS011;10205;49.678;6.560;2023-11-19T06:54:19;1.45;;;0.93;;
20090;SDS011;10205;49.678;6.560;2023-11-19T06:56:46;2.78;;;1.20;;
20090;SDS011;10205;49.678;6.560;2023-11-19T06:59:14;2.40;;;1.02;;
20090;SDS011;10205;49.678;6.560;2023-11-19T07:01:41;1.85;;;1.20;;
20090;SDS011;10205;49.678;6.560;2023-11-19T07:04:11;2.65;;;1.00;;
20090;SDS011;10205;49.678;6.560;2023-11-19T07:06:38;3.15;;;1.00;;
20090;SDS011;10205;49.678;6.560;2023-11-19T07:09:06;1.40;;;1.10;;
20090;SDS011;10205;49.678;6.560;2023-11-19T07:11:35;1.02;;;0.90;;
20090;SDS011;10205;49.678;6.560;2023-11-19T07:14:03;3.65;;;1.00;;
20090;SDS011;10205;49.678;6.560;2023-11-19T07:16:31;4.80;;;1.60;;
20090;SDS011;10205;49.678;6.560;2023-11-19T07:18:59;1.92;;;1.02;;
20090;SDS011;10205;49.678;6.560;2023-11-19T07:21:28;1.80;;;1.15;;
20090;SDS011;10205;49.678;6.560;2023-11-19T07:23:55;1.58;;;0.93;;
20090;SDS011;10205;49.678;6.560;2023-11-19T07:26:22;3.55;;;1.35;;
20090;SDS011;10205;49.678;6.560;2023-11-19T07:28:50;4.50;;;1.58;;
20090;SDS011;10205;49.678;6.560;2023-11-19T07:31:17;2.58;;;1.08;;
20090;SDS011;10205;49.678;6.560;2023-11-19T07:33:44;4.03;;;1.02;;
20090;SDS011;10205;49.678;6.560;2023-11-19T07:36:12;1.13;;;1.05;;
20090;SDS011;10205;49.678;6.560;2023-11-19T07:38:41;4.20;;;1.13;;
20090;SDS011;10205;49.678;6.560;2023-11-19T07:41:08;3.55;;;1.55;;
20090;SDS011;10205;49.678;6.560;2023-11-19T07:43:38;3.25;;;1.38;;
20090;SDS011;10205;49.678;6.560;2023-11-19T07:46:10;3.00;;;0.98;;
20090;SDS011;10205;49.678;6.560;2023-11-19T07:48:38;1.83;;;0.95;;
20090;SDS011;10205;49.678;6.560;2023-11-19T07:51:07;1.33;;;1.10;;
20090;SDS011;10205;49.678;6.560;2023-11-19T07:53:34;3.60;;;1.42;;
20090;SDS011;10205;49.678;6.560;2023-11-19T07:56:06;4.65;;;1.20;;
20090;SDS011;10205;49.678;6.560;2023-11-19T07:58:34;4.03;;;1.20;;
20090;SDS011;10205;49.678;6.560;2023-11-19T08:01:01;1.83;;;1.00;;
20090;SDS011;10205;49.678;6.560;2023-11-19T08:03:29;3.17;;;0.90;;
20090;SDS011;10205;49.678;6.560;2023-11-19T08:05:59;2.65;;;1.35;;
20090;SDS011;10205;49.678;6.560;2023-11-19T08:08:26;1.80;;;1.20;;
20090;SDS011;10205;49.678;6.560;2023-11-19T08:10:54;5.05;;;1.25;;
20090;SDS011;10205;49.678;6.560;2023-11-19T08:13:23;2.42;;;1.20;;
20090;SDS011;10205;49.678;6.560;2023-11-19T08:15:50;3.22;;;1.38;;
20090;SDS011;10205;49.678;6.560;2023-11-19T08:18:18;3.05;;;1.63;;
20090;SDS011;10205;49.678;6.560;2023-11-19T08:20:45;3.50;;;1.20;;
20090;SDS011;10205;49.678;6.560;2023-11-19T08:23:17;2.63;;;1.30;;
20090;SDS011;10205;49.678;6.560;2023-11-19T08:25:44;2.88;;;1.48;;
20090;SDS011;10205;49.678;6.560;2023-11-19T08:28:12;1.63;;;1.17;;
20090;SDS011;10205;49.678;6.560;2023-11-19T08:30:40;2.05;;;1.30;;
20090;SDS011;10205;49.678;6.560;2023-11-19T08:33:09;1.73;;;1.48;;
20090;SDS011;10205;49.678;6.560;2023-11-19T08:35:36;2.70;;;1.50;;
20090;SDS011;10205;49.678;6.560;2023-11-19T08:38:03;3.42;;;1.70;;
20090;SDS011;10205;49.678;6.560;2023-11-19T08:40:30;1.88;;;0.90;;
20090;SDS011;10205;49.678;6.560;2023-11-19T08:42:57;1.73;;;1.17;;
20090;SDS011;10205;49.678;6.560;2023-11-19T08:45:25;2.25;;;1.30;;
20090;SDS011;10205;49.678;6.560;2023-11-19T08:47:53;2.45;;;1.55;;
20090;SDS011;10205;49.678;6.560;2023-11-19T08:50:20;5.97;;;1.33;;
20090;SDS011;10205;49.678;6.560;2023-11-19T08:52:47;2.25;;;1.27;;
20090;SDS011;10205;49.678;6.560;2023-11-19T08:55:14;2.65;;;1.20;;
20090;SDS011;10205;49.678;6.560;2023-11-19T08:57:41;4.72;;;1.33;;
20090;SDS011;10205;49.678;6.560;2023-11-19T09:00:09;2.47;;;1.20;;
20090;SDS011;10205;49.678;6.560;2023-11-19T09:02:39;2.67;;;1.33;;
20090;SDS011;10205;49.678;6.560;2023-11-19T09:05:08;2.35;;;1.50;;
20090;SDS011;10205;49.678;6.560;2023-11-19T09:07:35;3.30;;;1.90;;
20090;SDS011;10205;49.678;6.560;2023-11-19T09:10:02;3.22;;;1.90;;
20090;SDS011;10205;49.678;6.560;2023-11-19T09:12:30;1.98;;;1.50;;
20090;SDS011;10205;49.678;6.560;2023-11-19T09:14:57;4.68;;;1.67;;
20090;SDS011;10205;49.678;6.560;2023-11-19T09:17:25;3.45;;;1.83;;
20090;SDS011;10205;49.678;6.560;2023-11-19T09:19:52;2.45;;;1.50;;
20090;SDS011;10205;49.678;6.560;2023-11-19T09:22:20;5.88;;;1.60;;
20090;SDS011;10205;49.678;6.560;2023-11-19T09:24:47;2.10;;;1.40;;
20090;SDS011;10205;49.678;6.560;2023-11-19T09:27:15;2.22;;;1.48;;
20090;SDS011;10205;49.678;6.560;2023-11-19T09:29:42;3.00;;;1.58;;
20090;SDS011;10205;49.678;6.560;2023-11-19T09:32:11;4.00;;;1.52;;
20090;SDS011;10205;49.678;6.560;2023-11-19T09:34:38;2.78;;;1.40;;
20090;SDS011;10205;49.678;6.560;2023-11-19T09:37:05;4.65;;;1.40;;
20090;SDS011;10205;49.678;6.560;2023-11-19T09:39:34;3.92;;;1.33;;
20090;SDS011;10205;49.678;6.560;2023-11-19T09:42:01;3.58;;;1.42;;
20090;SDS011;10205;49.678;6.560;2023-11-19T09:44:29;4.07;;;1.75;;
20090;SDS011;10205;49.678;6.560;2023-11-19T09:46:57;3.00;;;1.40;;
20090;SDS011;10205;49.678;6.560;2023-11-19T09:49:26;4.53;;;1.40;;
20090;SDS011;10205;49.678;6.560;2023-11-19T09:51:55;4.65;;;1.23;;
20090;SDS011;10205;49.678;6.560;2023-11-19T09:54:22;8.07;;;1.85;;
20090;SDS011;10205;49.678;6.560;2023-11-19T09:56:50;2.17;;;1.33;;
20090;SDS011;10205;49.678;6.560;2023-11-19T09:59:28;2.75;;;1.70;;
20090;SDS011;10205;49.678;6.560;2023-11-19T10:01:55;5.07;;;1.40;;
20090;SDS011;10205;49.678;6.560;2023-11-19T10:04:23;5.13;;;1.73;;
20090;SDS011;10205;49.678;6.560;2023-11-19T10:06:55;2.60;;;1.20;;
20090;SDS011;10205;49.678;6.560;2023-11-19T10:09:22;4.32;;;1.23;;
20090;SDS011;10205;49.678;6.560;2023-11-19T10:11:51;7.15;;;1.55;;
20090;SDS011;10205;49.678;6.560;2023-11-19T10:14:18;5.50;;;1.65;;
20090;SDS011;10205;49.678;6.560;2023-11-19T10:16:49;3.72;;;1.52;;
20090;SDS011;10205;49.678;6.560;2023-11-19T10:19:19;4.85;;;1.30;;
20090;SDS011;10205;49.678;6.560;2023-11-19T10:21:46;5.13;;;1.40;;
20090;SDS011;10205;49.678;6.560;2023-11-19T10:26:50;4.63;;;1.70;;
20090;SDS011;10205;49.678;6.560;2023-11-19T10:29:17;7.50;;;1.75;;
20090;SDS011;10205;49.678;6.560;2023-11-19T10:31:49;3.85;;;1.45;;
20090;SDS011;10205;49.678;6.560;2023-11-19T10:34:26;7.43;;;2.13;;
20090;SDS011;10205;49.678;6.560;2023-11-19T10:36:55;6.30;;;1.83;;
20090;SDS011;10205;49.678;6.560;2023-11-19T10:39:22;7.25;;;1.70;;
20090;SDS011;10205;49.678;6.560;2023-11-19T10:41:56;7.60;;;1.90;;
20090;SDS011;10205;49.678;6.560;2023-11-19T10:44:40;6.53;;;1.83;;
20090;SDS011;10205;49.678;6.560;2023-11-19T10:47:11;7.10;;;2.70;;
20090;SDS011;10205;49.678;6.560;2023-11-19T10:49:42;7.38;;;1.98;;
20090;SDS011;10205;49.678;6.560;2023-11-19T10:52:11;7.78;;;2.08;;
20090;SDS011;10205;49.678;6.560;2023-11-19T10:54:48;8.20;;;2.05;;
20090;SDS011;10205;49.678;6.560;2023-11-19T10:57:21;9.32;;;2.22;;
20090;SDS011;10205;49.678;6.560;2023-11-19T10:59:55;6.60;;;2.03;;
20090;SDS011;10205;49.678;6.560;2023-11-19T11:02:32;10.93;;;1.85;;
20090;SDS011;10205;49.678;6.560;2023-11-19T11:05:08;7.20;;;2.00;;
20090;SDS011;10205;49.678;6.560;2023-11-19T11:07:38;3.03;;;1.40;;
20090;SDS011;10205;49.678;6.560;2023-11-19T11:10:10;5.10;;;1.70;;
20090;SDS011;10205;49.678;6.560;2023-11-19T11:12:42;4.18;;;1.80;;
20090;SDS011;10205;49.678;6.560;2023-11-19T11:15:15;9.82;;;1.85;;
20090;SDS011;10205;49.678;6.560;2023-11-19T11:17:45;5.13;;;1.70;;
20090;SDS011;10205;49.678;6.560;2023-11-19T11:20:13;5.50;;;1.50;;
20090;SDS011;10205;49.678;6.560;2023-11-19T11:22:43;5.60;;;2.10;;
20090;SDS011;10205;49.678;6.560;2023-11-19T11:25:33;5.88;;;1.95;;
20090;SDS011;10205;49.678;6.560;2023-11-19T11:28:18;7.95;;;2.15;;
20090;SDS011;10205;49.678;6.560;2023-11-19T11:31:03;5.07;;;1.60;;
20090;SDS011;10205;49.678;6.560;2023-11-19T11:33:57;5.47;;;1.88;;
20090;SDS011;10205;49.678;6.560;2023-11-19T11:36:53;4.95;;;1.38;;
20090;SDS011;10205;49.678;6.560;2023-11-19T11:39:31;4.25;;;1.65;;
20090;SDS011;10205;49.678;6.560;2023-11-19T11:45:01;7.20;;;1.90;;
20090;SDS011;10205;49.678;6.560;2023-11-19T11:53:25;4.55;;;1.77;;
20090;SDS011;10205;49.678;6.560;2023-11-19T11:55:53;6.82;;;1.88;;
20090;SDS011;10205;49.678;6.560;2023-11-19T11:58:29;6.35;;;1.60;;
20090;SDS011;10205;49.678;6.560;2023-11-19T12:01:00;3.97;;;1.17;;
20090;SDS011;10205;49.678;6.560;2023-11-19T12:03:32;5.53;;;1.83;;
20090;SDS011;10205;49.678;6.560;2023-11-19T12:06:00;3.20;;;1.70;;
20090;SDS011;10205;49.678;6.560;2023-11-19T12:08:29;6.35;;;2.10;;
20090;SDS011;10205;49.678;6.560;2023-11-19T12:11:03;5.00;;;1.45;;
20090;SDS011;10205;49.678;6.560;2023-11-19T12:13:47;8.50;;;2.22;;
20090;SDS011;10205;49.678;6.560;2023-11-19T12:16:24;10.02;;;1.85;;
20090;SDS011;10205;49.678;6.560;2023-11-19T12:18:54;6.10;;;1.48;;
20090;SDS011;10205;49.678;6.560;2023-11-19T12:21:28;7.40;;;1.83;;
20090;SDS011;10205;49.678;6.560;2023-11-19T12:23:58;6.70;;;2.05;;
20090;SDS011;10205;49.678;6.560;2023-11-19T12:26:36;7.65;;;2.10;;
20090;SDS011;10205;49.678;6.560;2023-11-19T12:29:05;5.00;;;1.65;;
20090;SDS011;10205;49.678;6.560;2023-11-19T12:31:34;8.70;;;1.90;;
20090;SDS011;10205;49.678;6.560;2023-11-19T12:34:06;7.13;;;1.88;;
20090;SDS011;10205;49.678;6.560;2023-11-19T12:36:36;6.60;;;1.85;;
20090;SDS011;10205;49.678;6.560;2023-11-19T12:39:07;6.38;;;2.30;;
20090;SDS011;10205;49.678;6.560;2023-11-19T12:41:50;5.28;;;1.77;;
20090;SDS011;10205;49.678;6.560;2023-11-19T12:44:19;6.72;;;1.83;;
20090;SDS011;10205;49.678;6.560;2023-11-19T12:47:02;8.73;;;2.03;;
20090;SDS011;10205;49.678;6.560;2023-11-19T12:49:31;5.32;;;1.35;;
20090;SDS011;10205;49.678;6.560;2023-11-19T12:51:59;9.95;;;1.70;;
20090;SDS011;10205;49.678;6.560;2023-11-19T12:54:33;6.28;;;1.83;;
20090;SDS011;10205;49.678;6.560;2023-11-19T12:57:01;4.15;;;1.48;;
20090;SDS011;10205;49.678;6.560;2023-11-19T12:59:31;4.50;;;1.48;;
20090;SDS011;10205;49.678;6.560;2023-11-19T13:01:58;6.60;;;2.00;;
20090;SDS011;10205;49.678;6.560;2023-11-19T13:04:31;4.45;;;1.45;;
20090;SDS011;10205;49.678;6.560;2023-11-19T13:07:00;6.03;;;1.35;;
20090;SDS011;10205;49.678;6.560;2023-11-19T13:09:30;7.60;;;2.05;;
20090;SDS011;10205;49.678;6.560;2023-11-19T13:11:57;4.32;;;1.45;;
20090;SDS011;10205;49.678;6.560;2023-11-19T13:14:35;5.75;;;1.42;;
20090;SDS011;10205;49.678;6.560;2023-11-19T13:17:03;7.03;;;1.80;;
20090;SDS011;10205;49.678;6.560;2023-11-19T13:19:34;5.38;;;1.40;;
20090;SDS011;10205;49.678;6.560;2023-11-19T13:22:01;4.20;;;1.40;;
20090;SDS011;10205;49.678;6.560;2023-11-19T13:24:29;8.02;;;2.15;;
20090;SDS011;10205;49.678;6.560;2023-11-19T13:26:56;5.28;;;1.35;;
20090;SDS011;10205;49.678;6.560;2023-11-19T13:29:25;6.35;;;1.90;;
20090;SDS011;10205;49.678;6.560;2023-11-19T13:31:55;6.63;;;1.70;;
20090;SDS011;10205;49.678;6.560;2023-11-19T13:34:22;3.65;;;1.30;;
20090;SDS011;10205;49.678;6.560;2023-11-19T13:36:52;8.38;;;2.00;;
20090;SDS011;10205;49.678;6.560;2023-11-19T13:39:20;3.28;;;1.27;;
20090;SDS011;10205;49.678;6.560;2023-11-19T13:41:48;4.68;;;1.58;;
20090;SDS011;10205;49.678;6.560;2023-11-19T13:44:16;5.50;;;1.40;;
20090;SDS011;10205;49.678;6.560;2023-11-19T13:46:44;4.53;;;1.60;;
20090;SDS011;10205;49.678;6.560;2023-11-19T13:49:12;5.85;;;1.48;;
20090;SDS011;10205;49.678;6.560;2023-11-19T13:51:40;4.20;;;1.60;;
20090;SDS011;10205;49.678;6.560;2023-11-19T13:54:09;3.55;;;1.08;;
20090;SDS011;10205;49.678;6.560;2023-11-19T13:56:39;5.22;;;1.85;;
20090;SDS011;10205;49.678;6.560;2023-11-19T13:59:09;12.00;;;2.40;;
20090;SDS011;10205;49.678;6.560;2023-11-19T14:01:36;5.72;;;1.55;;
20090;SDS011;10205;49.678;6.560;2023-11-19T14:04:04;4.57;;;1.42;;
20090;SDS011;10205;49.678;6.560;2023-11-19T14:06:32;4.70;;;1.48;;
20090;SDS011;10205;49.678;6.560;2023-11-19T14:08:59;5.20;;;1.60;;
20090;SDS011;10205;49.678;6.560;2023-11-19T14:11:28;4.47;;;1.38;;
20090;SDS011;10205;49.678;6.560;2023-11-19T14:13:56;4.63;;;1.30;;
20090;SDS011;10205;49.678;6.560;2023-11-19T14:16:26;5.05;;;1.60;;
20090;SDS011;10205;49.678;6.560;2023-11-19T14:18:53;4.45;;;1.73;;
20090;SDS011;10205;49.678;6.560;2023-11-19T14:21:20;5.25;;;1.17;;
20090;SDS011;10205;49.678;6.560;2023-11-19T14:23:47;7.45;;;1.55;;
20090;SDS011;10205;49.678;6.560;2023-11-19T14:26:15;5.95;;;1.65;;
20090;SDS011;10205;49.678;6.560;2023-11-19T14:28:44;6.50;;;1.92;;
20090;SDS011;10205;49.678;6.560;2023-11-19T14:31:11;4.07;;;1.40;;
20090;SDS011;10205;49.678;6.560;2023-11-19T14:33:41;4.43;;;1.52;;
20090;SDS011;10205;49.678;6.560;2023-11-19T14:36:08;6.32;;;1.60;;
20090;SDS011;10205;49.678;6.560;2023-11-19T14:38:38;5.90;;;1.40;;
20090;SDS011;10205;49.678;6.560;2023-11-19T14:41:05;7.63;;;1.80;;
20090;SDS011;10205;49.678;6.560;2023-11-19T14:43:32;3.35;;;1.50;;
20090;SDS011;10205;49.678;6.560;2023-11-19T14:46:02;6.65;;;1.83;;
20090;SDS011;10205;49.678;6.560;2023-11-19T14:48:29;6.75;;;1.33;;
20090;SDS011;10205;49.678;6.560;2023-11-19T14:50:57;5.78;;;1.67;;
20090;SDS011;10205;49.678;6.560;2023-11-19T14:53:24;5.30;;;1.67;;
20090;SDS011;10205;49.678;6.560;2023-11-19T14:55:51;7.20;;;1.67;;
20090;SDS011;10205;49.678;6.560;2023-11-19T14:58:20;3.45;;;1.42;;
20090;SDS011;10205;49.678;6.560;2023-11-19T15:00:51;3.35;;;1.80;;
20090;SDS011;10205;49.678;6.560;2023-11-19T15:03:19;5.35;;;1.67;;
20090;SDS011;10205;49.678;6.560;2023-11-19T15:05:47;4.22;;;1.33;;
20090;SDS011;10205;49.678;6.560;2023-11-19T15:08:16;7.72;;;1.60;;
20090;SDS011;10205;49.678;6.560;2023-11-19T15:10:45;5.28;;;1.42;;
20090;SDS011;10205;49.678;6.560;2023-11-19T15:13:15;4.78;;;2.03;;
20090;SDS011;10205;49.678;6.560;2023-11-19T15:15:43;5.22;;;1.75;;
20090;SDS011;10205;49.678;6.560;2023-11-19T15:18:13;5.75;;;1.60;;
20090;SDS011;10205;49.678;6.560;2023-11-19T15:20:42;6.80;;;2.13;;
20090;SDS011;10205;49.678;6.560;2023-11-19T15:23:12;5.57;;;1.77;;